Kakushu Maru — JG5688 — position and weather

sailwx.info

Track history (hours):
 
Tides and Currents Weather Stations Pressure Air Temp Water Temp Dewpoint Dewpoint Depression Visibility Wind Speed Wind Dir Waves Ship Positions

Kakushu Maru

Last reported at 2017-Oct-14 08:01 UTC. Time now 2017-Oct-23 00:59 UTC.
Position N 34°54' E 140°05'.
Warning: this ship's position is 8 days out of date.

Length 105 m; draft 5.3 m.

Type: Tanker. MMSI: 431101016.

Date/timePositionNaut miles runAvg speedWind from/ knotsBaromVisibWave heightAir tempDewpointWater temp
2017-Oct-14 08:01N 34°54' E 140°05'215.1
2017-Oct-14 07:53N 34°53' E 140°03'1214.3
2017-Oct-14 07:05N 34°51' E 139°49'113.8
2017-Oct-14 07:00N 34°51' E 139°47'815.5
2017-Oct-14 06:30N 34°58' E 139°43'714.8
2017-Oct-14 06:00N 35°05' E 139°44'714.6
2017-Oct-14 05:30N 35°12' E 139°46'612.4
2017-Oct-14 05:01N 35°18' E 139°44'612.8
2017-Oct-14 04:31N 35°24' E 139°43'612.9
2017-Oct-14 04:00N 35°30' E 139°48'2 0.3
2017-Oct-13 22:05N 35°31' E 139°46'0 1.1
2017-Oct-13 22:00N 35°31' E 139°46'3 5.0
2017-Oct-13 21:30N 35°30' E 139°43'3 6.7
2017-Oct-13 21:00N 35°26' E 139°44'2 4.6
2017-Oct-13 20:30N 35°24' E 139°45'0 0.0
2017-Oct-13 19:59N 35°24' E 139°45'0 0.1
2017-Oct-13 19:29N 35°24' E 139°45'0 0.0
2017-Oct-13 18:59N 35°24' E 139°45'0 0.1
2017-Oct-13 18:29N 35°24' E 139°45'0 0.1
2017-Oct-13 17:59N 35°24' E 139°45'0 0.0
2017-Oct-13 17:29N 35°24' E 139°45'0 0.0
2017-Oct-13 16:59N 35°24' E 139°45'0 0.0
2017-Oct-13 16:29N 35°24' E 139°45'0 0.0
2017-Oct-13 15:59N 35°24' E 139°45'0 0.1
2017-Oct-13 15:29N 35°24' E 139°45'0 0.1
2017-Oct-13 14:59N 35°24' E 139°45'0 0.1
2017-Oct-13 14:29N 35°24' E 139°45'0 0.0
2017-Oct-13 13:59N 35°24' E 139°45'0 0.0
2017-Oct-13 13:29N 35°24' E 139°45'0 0.0
2017-Oct-13 12:59N 35°24' E 139°45'0 0.0
2017-Oct-13 12:29N 35°24' E 139°45'0 0.0
2017-Oct-13 11:59N 35°24' E 139°45'0 0.0
2017-Oct-13 11:29N 35°24' E 139°45'0 0.0
2017-Oct-13 10:59N 35°24' E 139°45'0 0.0
2017-Oct-13 10:29N 35°24' E 139°45'0 0.0
2017-Oct-13 09:59N 35°24' E 139°45'0 0.0
2017-Oct-13 09:29N 35°24' E 139°45'0 0.2
2017-Oct-13 09:00N 35°24' E 139°45'4 8.8
2017-Oct-13 08:31N 35°20' E 139°43'612.5
2017-Oct-13 08:00N 35°14' E 139°47'612.9
2017-Oct-13 07:30N 35°08' E 139°45'713.9
2017-Oct-13 06:59N 35°01' E 139°43'812.4
2017-Oct-13 06:21N 34°53' E 139°45'  
Track history (hours):
 
Tides and Currents Weather Stations Pressure Air Temp Water Temp Dewpoint Dewpoint Depression Visibility Wind Speed Wind Dir Waves Ship Positions

Kakushu Maru

Last reported at 2017-Oct-14 08:01 UTC. Time now 2017-Oct-23 00:59 UTC.
Position N 34°54' E 140°05'.
Warning: this ship's position is 8 days out of date.

Length 105 m; draft 5.3 m.

Type: Tanker. MMSI: 431101016.

Date/timePositionNaut miles runAvg speedWind from/ knotsBaromVisibWave heightAir tempDewpointWater temp
2017-Oct-14 08:01N 34°54' E 140°05'215.1
2017-Oct-14 07:53N 34°53' E 140°03'1214.3
2017-Oct-14 07:05N 34°51' E 139°49'113.8
2017-Oct-14 07:00N 34°51' E 139°47'815.5
2017-Oct-14 06:30N 34°58' E 139°43'714.8
2017-Oct-14 06:00N 35°05' E 139°44'714.6
2017-Oct-14 05:30N 35°12' E 139°46'612.4
2017-Oct-14 05:01N 35°18' E 139°44'612.8
2017-Oct-14 04:31N 35°24' E 139°43'612.9
2017-Oct-14 04:00N 35°30' E 139°48'2 0.3
2017-Oct-13 22:05N 35°31' E 139°46'0 1.1
2017-Oct-13 22:00N 35°31' E 139°46'3 5.0
2017-Oct-13 21:30N 35°30' E 139°43'3 6.7
2017-Oct-13 21:00N 35°26' E 139°44'2 4.6
2017-Oct-13 20:30N 35°24' E 139°45'0 0.0
2017-Oct-13 19:59N 35°24' E 139°45'0 0.1
2017-Oct-13 19:29N 35°24' E 139°45'0 0.0
2017-Oct-13 18:59N 35°24' E 139°45'0 0.1
2017-Oct-13 18:29N 35°24' E 139°45'0 0.1
2017-Oct-13 17:59N 35°24' E 139°45'0 0.0
2017-Oct-13 17:29N 35°24' E 139°45'0 0.0
2017-Oct-13 16:59N 35°24' E 139°45'0 0.0
2017-Oct-13 16:29N 35°24' E 139°45'0 0.0
2017-Oct-13 15:59N 35°24' E 139°45'0 0.1
2017-Oct-13 15:29N 35°24' E 139°45'0 0.1
2017-Oct-13 14:59N 35°24' E 139°45'0 0.1
2017-Oct-13 14:29N 35°24' E 139°45'0 0.0
2017-Oct-13 13:59N 35°24' E 139°45'0 0.0
2017-Oct-13 13:29N 35°24' E 139°45'0 0.0
2017-Oct-13 12:59N 35°24' E 139°45'0 0.0
2017-Oct-13 12:29N 35°24' E 139°45'0 0.0
2017-Oct-13 11:59N 35°24' E 139°45'0 0.0
2017-Oct-13 11:29N 35°24' E 139°45'0 0.0
2017-Oct-13 10:59N 35°24' E 139°45'0 0.0
2017-Oct-13 10:29N 35°24' E 139°45'0 0.0
2017-Oct-13 09:59N 35°24' E 139°45'0 0.0
2017-Oct-13 09:29N 35°24' E 139°45'0 0.2
2017-Oct-13 09:00N 35°24' E 139°45'4 8.8
2017-Oct-13 08:31N 35°20' E 139°43'612.5
2017-Oct-13 08:00N 35°14' E 139°47'612.9
2017-Oct-13 07:30N 35°08' E 139°45'713.9
2017-Oct-13 06:59N 35°01' E 139°43'812.4
2017-Oct-13 06:21N 34°53' E 139°45'  

Dump ship's entire track history